Time;durP1;ratioP1;P1;durP2;ratioP2;P2;SDS_P1;SDS_P2;PMS_P1;PMS_P2;Temp;Humidity;BMP_temperature;BMP_pressure;BME280_temperature;BME280_humidity;BME280_pressure;Samples;Min_cycle;Max_cycle;Signal;HPM_P1;HPM_P2
2022/08/10 00:00:58;;;;;;;6.43;4.40;;;;;;;;;;5049628;28;20045;-74
2022/08/10 00:03:24;;;;;;;5.78;4.65;;;;;;;;;;5048981;28;20041;-74
2022/08/10 00:05:53;;;;;;;6.72;4.55;;;;;;;;;;5041092;28;20037;-74
2022/08/10 00:08:20;;;;;;;7.60;5.03;;;;;;;;;;5049811;28;20580;-75
2022/08/10 00:10:46;;;;;;;8.27;5.57;;;;;;;;;;5050005;28;20029;-75
2022/08/10 00:13:12;;;;;;;7.25;5.32;;;;;;;;;;5052766;28;20117;-75
2022/08/10 00:15:38;;;;;;;7.97;5.25;;;;;;;;;;5053737;28;20067;-75
2022/08/10 00:18:04;;;;;;;7.30;5.68;;;;;;;;;;5052854;28;20037;-75
2022/08/10 00:20:30;;;;;;;8.75;5.57;;;;;;;;;;5052818;28;20088;-75
2022/08/10 00:22:57;;;;;;;8.05;6.18;;;;;;;;;;5037701;28;20488;-75
2022/08/10 00:25:23;;;;;;;6.90;5.50;;;;;;;;;;5037279;28;20041;-75
2022/08/10 00:27:49;;;;;;;9.13;5.90;;;;;;;;;;5053579;28;20436;-75
2022/08/10 00:30:15;;;;;;;8.63;6.00;;;;;;;;;;5053276;28;20045;-75
2022/08/10 00:32:41;;;;;;;8.40;6.45;;;;;;;;;;5053882;28;20037;-75
2022/08/10 00:35:07;;;;;;;8.52;6.28;;;;;;;;;;5052980;28;20049;-74
2022/08/10 00:37:33;;;;;;;10.95;6.00;;;;;;;;;;5054375;28;20055;-74
2022/08/10 00:39:59;;;;;;;11.10;6.38;;;;;;;;;;5052099;28;20087;-74
2022/08/10 00:42:25;;;;;;;7.88;5.90;;;;;;;;;;5053233;28;20043;-74
2022/08/10 00:44:53;;;;;;;5.63;4.40;;;;;;;;;;5038759;28;20045;-75
2022/08/10 00:47:19;;;;;;;11.20;6.40;;;;;;;;;;5037017;28;20447;-74
2022/08/10 00:49:46;;;;;;;8.20;5.35;;;;;;;;;;5035869;28;20369;-75
2022/08/10 00:52:12;;;;;;;8.43;5.65;;;;;;;;;;5043188;28;20044;-75
2022/08/10 00:54:39;;;;;;;9.48;6.05;;;;;;;;;;5053442;28;20508;-75
2022/08/10 00:57:06;;;;;;;10.88;6.40;;;;;;;;;;5052639;28;20041;-74
2022/08/10 00:59:32;;;;;;;8.50;6.65;;;;;;;;;;5035528;28;20090;-75
2022/08/10 01:01:58;;;;;;;7.35;4.93;;;;;;;;;;5052179;28;20501;-75
2022/08/10 01:04:25;;;;;;;8.52;6.07;;;;;;;;;;5036095;28;20489;-75
2022/08/10 01:07:02;;;;;;;9.32;6.72;;;;;;;;;;5054069;28;20094;-75
2022/08/10 01:09:34;;;;;;;8.57;5.28;;;;;;;;;;5052788;28;20389;-74
2022/08/10 01:12:03;;;;;;;9.82;6.20;;;;;;;;;;5051467;28;20068;-74
2022/08/10 01:14:46;;;;;;;10.85;6.50;;;;;;;;;;5041559;28;20041;-75
2022/08/10 01:17:20;;;;;;;9.10;6.45;;;;;;;;;;5040516;28;20405;-75
2022/08/10 01:19:49;;;;;;;8.38;5.60;;;;;;;;;;5048556;28;20490;-74
2022/08/10 01:22:29;;;;;;;5.30;4.07;;;;;;;;;;5052348;28;20509;-74
2022/08/10 01:25:11;;;;;;;9.65;5.32;;;;;;;;;;5052357;28;20045;-75
2022/08/10 01:27:50;;;;;;;7.30;5.18;;;;;;;;;;5053043;28;20040;-75
2022/08/10 01:30:17;;;;;;;8.90;5.80;;;;;;;;;;5053005;28;20055;-74
2022/08/10 01:32:52;;;;;;;6.90;5.35;;;;;;;;;;5069032;28;20541;-75
2022/08/10 01:35:31;;;;;;;9.18;5.95;;;;;;;;;;5048116;28;20103;-74
2022/08/10 01:38:09;;;;;;;10.38;7.00;;;;;;;;;;5038774;28;20398;-74
2022/08/10 01:40:38;;;;;;;9.68;6.90;;;;;;;;;;5052185;28;20036;-74
2022/08/10 01:43:05;;;;;;;14.15;7.25;;;;;;;;;;5051823;28;20041;-75
2022/08/10 01:45:32;;;;;;;11.90;7.53;;;;;;;;;;5051248;28;20081;-75
2022/08/10 01:50:46;;;;;;;7.32;5.25;;;;;;;;;;5051333;28;20044;-74
2022/08/10 01:53:19;;;;;;;9.65;7.38;;;;;;;;;;5034738;28;20535;-75
2022/08/10 01:55:48;;;;;;;10.65;7.80;;;;;;;;;;5045093;28;20068;-75
2022/08/10 01:58:15;;;;;;;12.75;7.63;;;;;;;;;;5051257;28;20079;-75
2022/08/10 02:00:44;;;;;;;11.95;7.40;;;;;;;;;;5050550;28;20048;-75
2022/08/10 02:03:10;;;;;;;10.57;6.80;;;;;;;;;;5045413;28;20037;-74
2022/08/10 02:05:38;;;;;;;10.52;7.13;;;;;;;;;;5043697;28;20045;-74
2022/08/10 02:08:05;;;;;;;12.88;8.10;;;;;;;;;;5048540;28;20124;-74
2022/08/10 02:10:31;;;;;;;9.35;6.57;;;;;;;;;;5042456;28;20087;-74
2022/08/10 02:12:58;;;;;;;11.73;8.07;;;;;;;;;;5049037;28;20047;-75
2022/08/10 02:15:25;;;;;;;13.23;7.95;;;;;;;;;;5049106;28;20041;-74
2022/08/10 02:17:52;;;;;;;12.40;7.72;;;;;;;;;;5046269;28;20041;-74
2022/08/10 02:20:26;;;;;;;12.88;8.20;;;;;;;;;;5048124;28;20427;-74
2022/08/10 02:22:59;;;;;;;13.15;7.28;;;;;;;;;;5040821;28;20048;-74
2022/08/10 02:25:25;;;;;;;13.57;9.00;;;;;;;;;;5046235;28;20036;-74
2022/08/10 02:27:52;;;;;;;12.45;8.45;;;;;;;;;;5049613;28;20112;-74
2022/08/10 02:30:18;;;;;;;13.18;8.75;;;;;;;;;;5034815;28;20033;-74
2022/08/10 02:32:45;;;;;;;11.75;8.40;;;;;;;;;;5051281;28;20052;-74
2022/08/10 02:35:12;;;;;;;17.17;8.55;;;;;;;;;;5051259;28;20094;-74
2022/08/10 02:37:39;;;;;;;12.35;8.70;;;;;;;;;;5051477;28;20036;-74
2022/08/10 02:40:05;;;;;;;14.73;8.30;;;;;;;;;;5052250;28;20041;-74
2022/08/10 02:42:43;;;;;;;14.23;9.40;;;;;;;;;;5033986;28;20119;-74
2022/08/10 02:45:12;;;;;;;12.23;7.28;;;;;;;;;;5050566;28;20049;-75
2022/08/10 02:47:40;;;;;;;11.27;7.43;;;;;;;;;;5051473;28;20404;-74
2022/08/10 02:50:24;;;;;;;13.45;7.93;;;;;;;;;;5050872;28;20385;-73
2022/08/10 02:52:55;;;;;;;13.57;8.98;;;;;;;;;;5034213;28;20090;-74
2022/08/10 02:55:40;;;;;;;13.25;8.55;;;;;;;;;;5049186;28;20036;-74
2022/08/10 02:58:11;;;;;;;14.23;9.52;;;;;;;;;;5043658;28;20053;-74
2022/08/10 03:00:40;;;;;;;14.27;8.90;;;;;;;;;;5060751;28;20119;-74
2022/08/10 03:03:08;;;;;;;14.90;9.82;;;;;;;;;;5040804;28;20132;-74
2022/08/10 03:05:34;;;;;;;14.15;9.32;;;;;;;;;;5049352;28;20090;-74
2022/08/10 03:08:03;;;;;;;13.05;8.45;;;;;;;;;;5051896;28;20037;-74
2022/08/10 03:10:31;;;;;;;9.70;6.20;;;;;;;;;;5050119;28;20051;-74
2022/08/10 03:12:59;;;;;;;8.52;5.47;;;;;;;;;;5033486;28;20052;-74
2022/08/10 03:15:26;;;;;;;13.27;8.45;;;;;;;;;;5048717;28;20393;-74
2022/08/10 03:17:53;;;;;;;12.10;8.30;;;;;;;;;;5050429;28;20068;-74
2022/08/10 03:20:20;;;;;;;15.00;9.48;;;;;;;;;;5050806;28;20120;-74
2022/08/10 03:22:49;;;;;;;15.60;9.70;;;;;;;;;;5050027;28;20044;-74
2022/08/10 03:25:17;;;;;;;14.50;9.18;;;;;;;;;;5029524;28;20129;-74
2022/08/10 03:27:44;;;;;;;14.13;9.68;;;;;;;;;;5048916;28;20048;-74
2022/08/10 03:30:11;;;;;;;16.17;9.55;;;;;;;;;;5051361;28;20040;-74
2022/08/10 03:32:37;;;;;;;18.83;9.93;;;;;;;;;;5051243;28;20048;-74
2022/08/10 03:35:05;;;;;;;15.13;9.75;;;;;;;;;;5049784;28;20045;-74
2022/08/10 03:37:31;;;;;;;13.23;8.95;;;;;;;;;;5049990;28;20041;-74
2022/08/10 03:39:57;;;;;;;16.55;10.30;;;;;;;;;;5050404;28;20044;-74
2022/08/10 03:42:23;;;;;;;14.88;9.77;;;;;;;;;;5049769;28;20044;-74
2022/08/10 03:44:50;;;;;;;16.17;9.30;;;;;;;;;;5049569;28;20516;-72
2022/08/10 03:47:18;;;;;;;15.63;10.27;;;;;;;;;;5050818;28;20041;-74
2022/08/10 03:49:46;;;;;;;19.60;11.05;;;;;;;;;;5049268;28;20382;-74
2022/08/10 03:52:12;;;;;;;16.38;10.73;;;;;;;;;;5050178;28;20213;-74
2022/08/10 03:54:39;;;;;;;17.55;10.45;;;;;;;;;;5050069;28;20516;-74
2022/08/10 03:57:05;;;;;;;16.63;9.82;;;;;;;;;;5050485;28;20107;-74
2022/08/10 03:59:31;;;;;;;17.02;10.13;;;;;;;;;;5049355;28;20515;-74
2022/08/10 04:01:58;;;;;;;17.60;10.43;;;;;;;;;;5048738;28;20037;-74
2022/08/10 04:04:25;;;;;;;19.48;12.23;;;;;;;;;;5048579;28;20041;-74
2022/08/10 04:06:51;;;;;;;20.83;12.18;;;;;;;;;;5031087;28;20041;-74
2022/08/10 04:09:17;;;;;;;19.52;11.43;;;;;;;;;;5044713;28;20045;-74
2022/08/10 04:11:43;;;;;;;17.25;10.88;;;;;;;;;;5046376;28;20068;-74
2022/08/10 04:14:09;;;;;;;20.15;11.73;;;;;;;;;;5047925;28;20081;-74
2022/08/10 04:16:36;;;;;;;20.02;11.98;;;;;;;;;;5045447;28;20461;-74
2022/08/10 04:19:02;;;;;;;17.25;11.23;;;;;;;;;;5049746;28;20048;-74
2022/08/10 04:21:31;;;;;;;23.92;12.52;;;;;;;;;;5028865;28;20080;-74
2022/08/10 04:24:00;;;;;;;20.60;12.05;;;;;;;;;;5047533;28;20482;-73
2022/08/10 04:26:26;;;;;;;19.85;11.60;;;;;;;;;;5044193;28;20048;-75
2022/08/10 04:28:53;;;;;;;21.85;12.48;;;;;;;;;;5040932;28;20069;-75
2022/08/10 04:31:19;;;;;;;19.13;12.30;;;;;;;;;;5042063;28;20117;-75
2022/08/10 04:33:46;;;;;;;18.88;11.65;;;;;;;;;;5045464;28;20041;-74
2022/08/10 04:36:14;;;;;;;19.45;12.18;;;;;;;;;;5042873;28;20044;-74
2022/08/10 04:38:41;;;;;;;21.52;12.38;;;;;;;;;;5044463;28;20036;-73
2022/08/10 04:41:07;;;;;;;19.55;11.57;;;;;;;;;;5043926;28;20041;-74
2022/08/10 04:43:33;;;;;;;25.27;12.32;;;;;;;;;;5041421;28;20076;-74
2022/08/10 04:46:00;;;;;;;18.80;11.60;;;;;;;;;;5040876;28;20046;-74
2022/08/10 04:48:26;;;;;;;15.82;9.85;;;;;;;;;;5048098;28;20055;-74
2022/08/10 04:50:52;;;;;;;18.67;11.30;;;;;;;;;;5045772;28;20694;-74
2022/08/10 04:53:18;;;;;;;17.85;11.63;;;;;;;;;;5051681;28;20040;-74
2022/08/10 04:55:44;;;;;;;16.17;10.50;;;;;;;;;;5049394;28;20123;-74
2022/08/10 04:58:10;;;;;;;17.33;10.27;;;;;;;;;;5067098;28;20049;-74
2022/08/10 05:00:36;;;;;;;18.05;9.93;;;;;;;;;;5036895;28;20049;-74
2022/08/10 05:03:02;;;;;;;12.88;9.10;;;;;;;;;;5042247;28;20037;-74
2022/08/10 05:05:28;;;;;;;12.68;8.82;;;;;;;;;;5050705;28;20057;-74
2022/08/10 05:07:54;;;;;;;13.00;8.90;;;;;;;;;;5047333;28;20038;-74
2022/08/10 05:10:20;;;;;;;12.82;9.20;;;;;;;;;;5051258;28;20037;-74
2022/08/10 05:12:46;;;;;;;11.68;8.20;;;;;;;;;;5048706;28;20045;-74
2022/08/10 05:15:14;;;;;;;12.63;8.70;;;;;;;;;;5047584;28;20056;-74
2022/08/10 05:17:41;;;;;;;12.50;8.00;;;;;;;;;;5051134;28;20091;-74
2022/08/10 05:20:09;;;;;;;11.43;7.43;;;;;;;;;;5046376;28;20041;-74
2022/08/10 05:22:36;;;;;;;11.00;7.78;;;;;;;;;;5043673;28;20057;-74
2022/08/10 05:25:03;;;;;;;13.82;8.57;;;;;;;;;;5051892;28;20083;-74
2022/08/10 05:27:29;;;;;;;12.07;8.20;;;;;;;;;;5050887;28;20044;-74
2022/08/10 05:29:55;;;;;;;12.90;8.45;;;;;;;;;;5035252;28;20041;-74
2022/08/10 05:32:21;;;;;;;11.52;7.78;;;;;;;;;;5052684;28;20175;-74
2022/08/10 05:34:47;;;;;;;11.38;7.97;;;;;;;;;;5052656;28;20045;-74
2022/08/10 05:37:14;;;;;;;11.40;7.32;;;;;;;;;;5052539;28;20123;-74
2022/08/10 05:39:41;;;;;;;8.95;6.90;;;;;;;;;;5051995;28;20051;-74
2022/08/10 05:42:07;;;;;;;9.82;7.72;;;;;;;;;;5053164;28;20044;-75
2022/08/10 05:44:34;;;;;;;10.40;6.70;;;;;;;;;;5052387;28;20049;-75
2022/08/10 05:47:00;;;;;;;10.82;7.47;;;;;;;;;;5036009;28;20445;-75
2022/08/10 05:49:26;;;;;;;10.55;7.13;;;;;;;;;;5036116;28;20099;-75
2022/08/10 05:51:52;;;;;;;9.82;7.22;;;;;;;;;;5051632;28;20502;-75
2022/08/10 05:54:18;;;;;;;11.65;7.20;;;;;;;;;;5052765;28;20044;-75
2022/08/10 05:56:45;;;;;;;8.80;6.50;;;;;;;;;;5053397;28;20033;-74
2022/08/10 05:59:12;;;;;;;8.55;6.32;;;;;;;;;;5052664;28;20439;-73
2022/08/10 06:01:40;;;;;;;10.20;6.90;;;;;;;;;;5051819;28;20036;-79
2022/08/10 06:04:07;;;;;;;7.63;6.20;;;;;;;;;;5029230;28;20045;-79
2022/08/10 06:06:34;;;;;;;8.80;6.47;;;;;;;;;;5035733;28;20041;-79
2022/08/10 06:09:00;;;;;;;9.75;6.25;;;;;;;;;;5048191;28;20087;-79
2022/08/10 06:11:28;;;;;;;7.82;6.80;;;;;;;;;;5036991;28;20045;-79
2022/08/10 06:16:42;;;;;;;8.48;6.53;;;;;;;;;;5057335;28;20045;-79
2022/08/10 06:19:08;;;;;;;9.50;6.30;;;;;;;;;;5042273;28;20048;-80
2022/08/10 06:21:34;;;;;;;6.85;5.85;;;;;;;;;;5048331;28;20073;-79
2022/08/10 06:24:01;;;;;;;6.78;5.38;;;;;;;;;;5051073;28;20175;-79
2022/08/10 06:26:27;;;;;;;8.70;5.35;;;;;;;;;;5047981;28;20502;-79
2022/08/10 06:28:55;;;;;;;7.28;5.72;;;;;;;;;;5039455;28;20043;-80
2022/08/10 06:31:21;;;;;;;6.05;4.88;;;;;;;;;;5053425;28;20048;-79
2022/08/10 06:33:48;;;;;;;7.80;5.43;;;;;;;;;;5050896;28;20044;-80
2022/08/10 06:36:14;;;;;;;8.35;5.55;;;;;;;;;;5052066;28;20052;-79
2022/08/10 06:38:41;;;;;;;6.25;5.03;;;;;;;;;;5032731;28;20051;-80
2022/08/10 06:41:12;;;;;;;6.90;5.50;;;;;;;;;;5047641;28;20095;-77
2022/08/10 06:43:40;;;;;;;7.85;4.72;;;;;;;;;;5051188;28;20061;-77
2022/08/10 06:46:08;;;;;;;8.40;5.63;;;;;;;;;;5061429;28;20142;-77
2022/08/10 06:48:42;;;;;;;7.07;5.10;;;;;;;;;;5049078;28;20041;-79
2022/08/10 06:51:13;;;;;;;8.35;5.55;;;;;;;;;;5051578;28;20048;-79
2022/08/10 06:53:45;;;;;;;8.38;4.53;;;;;;;;;;5050040;28;20462;-79
2022/08/10 06:56:12;;;;;;;5.88;4.88;;;;;;;;;;5048333;28;20132;-78
2022/08/10 06:58:40;;;;;;;8.32;5.30;;;;;;;;;;5049476;28;20489;-78
2022/08/10 07:01:08;;;;;;;5.75;4.78;;;;;;;;;;5045094;28;20041;-78
2022/08/10 07:03:43;;;;;;;7.10;4.30;;;;;;;;;;5049153;28;20124;-78
2022/08/10 07:06:12;;;;;;;6.50;4.93;;;;;;;;;;5045749;28;20033;-80
2022/08/10 07:08:39;;;;;;;4.68;3.50;;;;;;;;;;5049209;28;20048;-78
2022/08/10 07:11:06;;;;;;;5.55;3.88;;;;;;;;;;5049052;28;20045;-79
2022/08/10 07:13:32;;;;;;;6.15;4.03;;;;;;;;;;5050674;28;20040;-79
2022/08/10 07:15:59;;;;;;;5.47;3.88;;;;;;;;;;5063236;28;20045;-79
2022/08/10 07:18:26;;;;;;;6.25;4.10;;;;;;;;;;5046984;28;20163;-80
2022/08/10 07:20:53;;;;;;;14.32;3.95;;;;;;;;;;5048846;28;20056;-78
2022/08/10 07:23:21;;;;;;;10.32;4.03;;;;;;;;;;5046585;28;20064;-78
2022/08/10 07:25:48;;;;;;;5.80;3.60;;;;;;;;;;5048791;28;20037;-80
2022/08/10 07:28:15;;;;;;;6.57;3.67;;;;;;;;;;5049643;28;20044;-80
2022/08/10 07:30:41;;;;;;;7.90;3.70;;;;;;;;;;5050617;28;20041;-81
2022/08/10 07:33:08;;;;;;;5.18;3.10;;;;;;;;;;5049084;28;20037;-82
2022/08/10 07:35:35;;;;;;;4.80;3.50;;;;;;;;;;5049812;28;20083;-80
2022/08/10 07:38:04;;;;;;;6.60;3.17;;;;;;;;;;5033837;28;20044;-80
2022/08/10 07:40:30;;;;;;;4.55;3.25;;;;;;;;;;5050472;28;20402;-80
2022/08/10 07:42:58;;;;;;;4.65;3.05;;;;;;;;;;5050555;28;20448;-80
2022/08/10 07:45:27;;;;;;;6.32;3.15;;;;;;;;;;5049897;28;20076;-81
2022/08/10 07:48:04;;;;;;;5.85;2.88;;;;;;;;;;5050472;28;20497;-81
2022/08/10 07:50:31;;;;;;;4.85;2.92;;;;;;;;;;5049921;28;20044;-80
2022/08/10 07:53:02;;;;;;;4.93;2.90;;;;;;;;;;5066262;28;20128;-78
2022/08/10 07:55:29;;;;;;;5.65;2.28;;;;;;;;;;5050011;28;20049;-78
2022/08/10 07:57:57;;;;;;;4.45;2.97;;;;;;;;;;5049386;28;20044;-78
2022/08/10 08:00:25;;;;;;;5.90;3.00;;;;;;;;;;5050513;28;20481;-78
2022/08/10 08:02:53;;;;;;;5.15;3.22;;;;;;;;;;5049220;28;20112;-78
2022/08/10 08:05:21;;;;;;;6.72;2.70;;;;;;;;;;5049273;28;20187;-78
2022/08/10 08:07:48;;;;;;;4.75;2.40;;;;;;;;;;5050325;28;20041;-79
2022/08/10 08:10:15;;;;;;;4.20;2.80;;;;;;;;;;5049929;28;20037;-78
2022/08/10 08:12:42;;;;;;;5.80;2.58;;;;;;;;;;5049310;28;20041;-77
2022/08/10 08:15:10;;;;;;;6.70;2.40;;;;;;;;;;5049968;28;20175;-78
2022/08/10 08:17:38;;;;;;;3.28;2.15;;;;;;;;;;5050304;28;20049;-78
2022/08/10 08:20:05;;;;;;;3.92;1.98;;;;;;;;;;5049587;28;20055;-77
2022/08/10 08:22:31;;;;;;;6.13;1.95;;;;;;;;;;5033785;28;20045;-78
2022/08/10 08:24:58;;;;;;;4.00;2.10;;;;;;;;;;5049192;28;20547;-78
2022/08/10 08:27:25;;;;;;;5.13;2.40;;;;;;;;;;5053638;28;20563;-78
2022/08/10 08:29:51;;;;;;;4.90;2.03;;;;;;;;;;5054193;28;20040;-78
2022/08/10 08:32:21;;;;;;;5.28;1.98;;;;;;;;;;5053631;28;20037;-78
2022/08/10 08:34:48;;;;;;;3.65;2.03;;;;;;;;;;5054291;28;20433;-77
2022/08/10 08:37:16;;;;;;;5.35;2.05;;;;;;;;;;5052810;28;20032;-79
2022/08/10 08:39:43;;;;;;;5.25;2.53;;;;;;;;;;5051897;28;20048;-78
2022/08/10 08:42:15;;;;;;;3.50;2.00;;;;;;;;;;5051877;28;20041;-78
2022/08/10 08:44:50;;;;;;;6.40;1.90;;;;;;;;;;5046632;28;20080;-78
2022/08/10 08:47:35;;;;;;;3.65;1.88;;;;;;;;;;5047144;28;20148;-78
2022/08/10 08:50:10;;;;;;;5.72;2.10;;;;;;;;;;5050431;28;20045;-78
2022/08/10 08:52:55;;;;;;;40.42;4.18;;;;;;;;;;5028868;28;20099;-79
2022/08/10 08:55:39;;;;;;;6.57;2.20;;;;;;;;;;5040791;28;20048;-77
2022/08/10 08:58:26;;;;;;;3.42;2.15;;;;;;;;;;5042828;28;20056;-79
2022/08/10 09:01:08;;;;;;;4.15;1.98;;;;;;;;;;5056949;28;20494;-79
2022/08/10 09:03:38;;;;;;;4.53;2.10;;;;;;;;;;5041983;28;20054;-78
2022/08/10 09:06:22;;;;;;;4.65;2.08;;;;;;;;;;5050801;28;20033;-78
2022/08/10 09:08:48;;;;;;;5.65;2.15;;;;;;;;;;5039016;28;20044;-80
2022/08/10 09:11:26;;;;;;;5.40;1.98;;;;;;;;;;5042173;28;20041;-78
2022/08/10 09:14:02;;;;;;;6.82;2.10;;;;;;;;;;5052067;28;20106;-79
2022/08/10 09:16:44;;;;;;;3.90;2.13;;;;;;;;;;5034641;28;20041;-79
2022/08/10 09:19:29;;;;;;;3.58;1.55;;;;;;;;;;5036584;28;20045;-79
2022/08/10 09:22:02;;;;;;;5.38;1.70;;;;;;;;;;5032969;28;20080;-79
2022/08/10 09:24:34;;;;;;;4.65;1.80;;;;;;;;;;5052200;28;20397;-79
2022/08/10 09:27:03;;;;;;;4.35;1.50;;;;;;;;;;5053100;28;20094;-79
2022/08/10 09:29:32;;;;;;;5.43;1.75;;;;;;;;;;5052576;28;20044;-79
2022/08/10 09:32:09;;;;;;;3.58;1.58;;;;;;;;;;5050927;28;20044;-79
2022/08/10 09:34:41;;;;;;;3.13;1.67;;;;;;;;;;5042394;28;20087;-78
2022/08/10 09:37:19;;;;;;;3.60;1.58;;;;;;;;;;5035757;28;20129;-78
2022/08/10 09:39:53;;;;;;;5.53;1.65;;;;;;;;;;5053108;28;20477;-78
2022/08/10 09:42:40;;;;;;;5.00;1.88;;;;;;;;;;5052261;28;20045;-78
2022/08/10 09:45:08;;;;;;;2.60;1.55;;;;;;;;;;5052369;28;20084;-79
2022/08/10 09:47:43;;;;;;;3.28;1.50;;;;;;;;;;5051269;28;20051;-79
2022/08/10 09:50:20;;;;;;;5.05;1.50;;;;;;;;;;5035067;28;20036;-79
2022/08/10 09:52:50;;;;;;;7.45;1.50;;;;;;;;;;5053017;28;20063;-79
2022/08/10 09:55:39;;;;;;;4.80;1.60;;;;;;;;;;5052198;28;20382;-79
2022/08/10 09:58:26;;;;;;;4.63;1.50;;;;;;;;;;5038768;28;20459;-78
2022/08/10 10:01:01;;;;;;;3.58;1.40;;;;;;;;;;5064818;28;20049;-79
2022/08/10 10:03:30;;;;;;;5.97;1.48;;;;;;;;;;5035156;28;20045;-79
2022/08/10 10:06:02;;;;;;;3.38;1.30;;;;;;;;;;5051121;28;20037;-80
2022/08/10 10:08:36;;;;;;;3.15;1.40;;;;;;;;;;5051656;28;20064;-79
2022/08/10 10:11:07;;;;;;;3.10;1.50;;;;;;;;;;5052300;28;20037;-79
2022/08/10 10:13:40;;;;;;;4.53;1.73;;;;;;;;;;5052193;28;20041;-77
2022/08/10 10:16:09;;;;;;;4.47;1.30;;;;;;;;;;5052047;28;20049;-79
2022/08/10 10:18:58;;;;;;;3.08;1.60;;;;;;;;;;5051546;28;20086;-78
2022/08/10 10:21:41;;;;;;;5.97;1.40;;;;;;;;;;5051468;28;20056;-80
2022/08/10 10:24:10;;;;;;;3.75;1.55;;;;;;;;;;5052247;28;20109;-79
2022/08/10 10:26:55;;;;;;;4.80;1.25;;;;;;;;;;5051583;28;20087;-79
2022/08/10 10:29:21;;;;;;;;;;;;;;;;;;5040897;28;20033;-79
2022/08/10 10:31:50;;;;;;;1.92;1.20;;;;;;;;;;5050126;28;19924;-80
2022/08/10 10:34:22;;;;;;;3.65;1.20;;;;;;;;;;5051602;28;20059;-79
2022/08/10 10:36:50;;;;;;;2.83;1.10;;;;;;;;;;5052176;28;20524;-79
2022/08/10 10:39:18;;;;;;;2.80;1.15;;;;;;;;;;5051977;28;20377;-79
2022/08/10 10:41:44;;;;;;;5.78;1.30;;;;;;;;;;5051133;28;20049;-79
2022/08/10 10:44:25;;;;;;;2.80;1.10;;;;;;;;;;5035025;28;20498;-78
2022/08/10 10:46:51;;;;;;;6.22;1.08;;;;;;;;;;5051324;28;20041;-79
2022/08/10 10:49:36;;;;;;;3.42;1.27;;;;;;;;;;5034150;28;20065;-78
2022/08/10 10:52:13;;;;;;;5.13;1.30;;;;;;;;;;5050269;28;20040;-79
2022/08/10 10:54:39;;;;;;;3.38;1.10;;;;;;;;;;5041229;28;20536;-78
2022/08/10 10:57:12;;;;;;;2.17;0.98;;;;;;;;;;5047528;28;20041;-79
2022/08/10 10:59:38;;;;;;;2.33;1.10;;;;;;;;;;5040429;28;20033;-79
2022/08/10 11:02:08;;;;;;;3.45;1.20;;;;;;;;;;5046479;28;20041;-79
2022/08/10 11:04:40;;;;;;;2.20;1.10;;;;;;;;;;5041596;28;20051;-78
2022/08/10 11:07:25;;;;;;;3.80;1.40;;;;;;;;;;5045498;28;20509;-78
2022/08/10 11:09:51;;;;;;;4.13;1.23;;;;;;;;;;5040330;28;20073;-78
2022/08/10 11:12:33;;;;;;;2.45;1.10;;;;;;;;;;5036182;28;20041;-78
2022/08/10 11:15:15;;;;;;;2.22;1.13;;;;;;;;;;5045665;28;20056;-78
2022/08/10 11:17:48;;;;;;;2.42;1.20;;;;;;;;;;5056679;28;20041;-79
2022/08/10 11:20:17;;;;;;;2.08;1.10;;;;;;;;;;5041174;28;20490;-79
2022/08/10 11:22:43;;;;;;;7.10;1.23;;;;;;;;;;5044341;28;20068;-78
2022/08/10 11:25:19;;;;;;;2.45;1.20;;;;;;;;;;5041284;28;20095;-79
2022/08/10 11:28:01;;;;;;;3.65;1.08;;;;;;;;;;5051568;28;20448;-78
2022/08/10 11:30:33;;;;;;;3.05;1.20;;;;;;;;;;5050071;28;20048;-79
2022/08/10 11:33:12;;;;;;;3.67;1.25;;;;;;;;;;5050655;28;20041;-78
2022/08/10 11:35:49;;;;;;;3.35;1.20;;;;;;;;;;5063739;28;20055;-79
2022/08/10 11:38:15;;;;;;;5.70;1.33;;;;;;;;;;5035395;28;20480;-79
2022/08/10 11:40:43;;;;;;;2.70;1.40;;;;;;;;;;5050299;28;20037;-80
2022/08/10 11:43:09;;;;;;;5.00;1.55;;;;;;;;;;5051192;28;20067;-79
2022/08/10 11:45:38;;;;;;;3.97;1.08;;;;;;;;;;5048888;28;20051;-79
2022/08/10 11:48:16;;;;;;;3.55;1.23;;;;;;;;;;5051027;28;20043;-79
2022/08/10 11:51:03;;;;;;;2.42;1.35;;;;;;;;;;5050264;28;20163;-78
2022/08/10 11:53:48;;;;;;;4.43;1.40;;;;;;;;;;5033988;28;20125;-78
2022/08/10 11:56:19;;;;;;;3.90;1.30;;;;;;;;;;5049365;28;20044;-79
2022/08/10 12:01:32;;;;;;;2.97;1.00;;;;;;;;;;5051953;28;20044;-79
2022/08/10 12:04:06;;;;;;;2.38;1.30;;;;;;;;;;5035296;28;20052;-79
2022/08/10 12:06:33;;;;;;;3.38;1.23;;;;;;;;;;5051400;28;20485;-79
2022/08/10 12:08:59;;;;;;;2.42;1.20;;;;;;;;;;5052610;28;20040;-79
2022/08/10 12:11:28;;;;;;;2.20;1.00;;;;;;;;;;5052339;28;20029;-78
2022/08/10 12:13:57;;;;;;;1.67;1.10;;;;;;;;;;5052307;28;20135;-79
2022/08/10 12:16:24;;;;;;;2.75;1.20;;;;;;;;;;5037932;28;20039;-78
2022/08/10 12:19:00;;;;;;;2.67;1.20;;;;;;;;;;5044871;28;20049;-79
2022/08/10 12:21:30;;;;;;;3.42;1.13;;;;;;;;;;5047709;28;20551;-79
2022/08/10 12:23:57;;;;;;;2.58;1.20;;;;;;;;;;5042535;28;20053;-78
2022/08/10 12:26:32;;;;;;;2.47;1.20;;;;;;;;;;5050007;28;20045;-78
2022/08/10 12:28:58;;;;;;;;;;;;;;;;;;5053379;28;20137;-77
2022/08/10 12:31:30;;;;;;;2.20;1.00;;;;;;;;;;5053114;28;19968;-78
2022/08/10 12:34:09;;;;;;;2.25;1.00;;;;;;;;;;5036455;28;20517;-77
2022/08/10 12:36:40;;;;;;;2.35;1.20;;;;;;;;;;5051308;28;20060;-77
2022/08/10 12:39:06;;;;;;;2.03;1.08;;;;;;;;;;5040528;28;20114;-78
2022/08/10 12:41:39;;;;;;;3.25;1.30;;;;;;;;;;5036922;28;20041;-77
2022/08/10 12:44:08;;;;;;;2.50;1.30;;;;;;;;;;5046243;28;20056;-78
2022/08/10 12:46:40;;;;;;;3.58;1.20;;;;;;;;;;5050800;28;20032;-77
2022/08/10 12:49:44;;;;;;;1.90;1.05;;;;;;;;;;5050357;28;20471;-77
2022/08/10 12:52:10;;;;;;;3.40;1.20;;;;;;;;;;5020067;28;20041;-78
2022/08/10 12:54:37;;;;;;;3.97;1.10;;;;;;;;;;5030183;28;20041;-79
2022/08/10 12:57:07;;;;;;;2.72;1.10;;;;;;;;;;5035205;28;20045;-77
2022/08/10 12:59:35;;;;;;;2.15;1.10;;;;;;;;;;5052886;28;20037;-78
2022/08/10 13:02:02;;;;;;;2.00;1.10;;;;;;;;;;5052872;28;20052;-77
2022/08/10 13:04:29;;;;;;;3.58;1.00;;;;;;;;;;5060459;28;20041;-77
2022/08/10 13:06:58;;;;;;;3.85;1.10;;;;;;;;;;5051033;28;20094;-76
2022/08/10 13:09:25;;;;;;;2.58;1.10;;;;;;;;;;5050022;28;20044;-78
2022/08/10 13:11:59;;;;;;;2.58;1.00;;;;;;;;;;5051772;28;20047;-77
2022/08/10 13:14:31;;;;;;;2.20;1.08;;;;;;;;;;5050087;28;20091;-76
2022/08/10 13:16:58;;;;;;;4.20;1.48;;;;;;;;;;5039933;28;20049;-77
2022/08/10 13:19:27;;;;;;;2.70;1.10;;;;;;;;;;5045925;28;20048;-77
2022/08/10 13:21:53;;;;;;;4.28;1.15;;;;;;;;;;5039947;28;20087;-79
2022/08/10 13:24:24;;;;;;;3.97;1.23;;;;;;;;;;5047995;28;20788;-76
2022/08/10 13:26:52;;;;;;;4.28;1.25;;;;;;;;;;5034146;28;20041;-77
2022/08/10 13:29:20;;;;;;;3.50;1.20;;;;;;;;;;5054400;28;20052;-77
2022/08/10 13:31:48;;;;;;;2.60;1.00;;;;;;;;;;5052468;28;20045;-77
2022/08/10 13:34:25;;;;;;;2.95;1.20;;;;;;;;;;5036481;28;20095;-75
2022/08/10 13:36:53;;;;;;;3.53;1.00;;;;;;;;;;5052890;28;20478;-75
2022/08/10 13:39:21;;;;;;;3.67;1.10;;;;;;;;;;5038979;28;20059;-76
2022/08/10 13:41:48;;;;;;;3.15;1.17;;;;;;;;;;5032771;28;20505;-75
2022/08/10 13:44:26;;;;;;;2.53;1.17;;;;;;;;;;5054119;28;20049;-75
2022/08/10 13:46:53;;;;;;;2.00;1.13;;;;;;;;;;5053104;28;20057;-76
2022/08/10 13:49:22;;;;;;;4.22;1.00;;;;;;;;;;5053446;28;20039;-75
2022/08/10 13:51:50;;;;;;;1.80;1.10;;;;;;;;;;5051876;28;20037;-77
2022/08/10 13:54:16;;;;;;;3.13;1.08;;;;;;;;;;5051537;28;20488;-77
2022/08/10 13:56:44;;;;;;;4.13;1.30;;;;;;;;;;5052115;28;20084;-76
2022/08/10 13:59:11;;;;;;;5.38;1.20;;;;;;;;;;5052865;28;20051;-77
2022/08/10 14:01:37;;;;;;;3.63;1.20;;;;;;;;;;5031292;28;20370;-77
2022/08/10 14:04:05;;;;;;;2.70;1.10;;;;;;;;;;5050516;28;20532;-77
2022/08/10 14:06:32;;;;;;;4.07;1.15;;;;;;;;;;5043477;28;20065;-76
2022/08/10 14:09:07;;;;;;;3.30;1.00;;;;;;;;;;5033696;28;20045;-77
2022/08/10 14:11:35;;;;;;;2.17;1.20;;;;;;;;;;5048372;28;20560;-77
2022/08/10 14:14:03;;;;;;;2.72;1.00;;;;;;;;;;5050317;28;20032;-77
2022/08/10 14:16:29;;;;;;;4.07;1.00;;;;;;;;;;5051135;28;20040;-78
2022/08/10 14:18:57;;;;;;;3.70;1.15;;;;;;;;;;5050765;28;20045;-77
2022/08/10 14:21:24;;;;;;;1.90;1.10;;;;;;;;;;5046714;28;20141;-76
2022/08/10 14:23:50;;;;;;;4.00;1.10;;;;;;;;;;5047734;28;20072;-76
2022/08/10 14:26:29;;;;;;;4.78;1.20;;;;;;;;;;5049953;28;20512;-76
2022/08/10 14:28:57;;;;;;;1.75;0.82;;;;;;;;;;5031149;28;20045;-77
2022/08/10 14:31:28;;;;;;;4.57;1.20;;;;;;;;;;5049221;28;20541;-77
2022/08/10 14:33:56;;;;;;;1.75;1.00;;;;;;;;;;5049916;28;20044;-77
2022/08/10 14:36:29;;;;;;;2.53;1.20;;;;;;;;;;5025496;28;20048;-78
2022/08/10 14:38:55;;;;;;;2.13;1.20;;;;;;;;;;5039534;28;20041;-77
2022/08/10 14:41:25;;;;;;;2.60;0.90;;;;;;;;;;5059395;28;20077;-77
2022/08/10 14:43:54;;;;;;;3.63;1.10;;;;;;;;;;5047799;28;20045;-77
2022/08/10 14:46:21;;;;;;;3.30;1.00;;;;;;;;;;5046348;28;20041;-77
2022/08/10 14:48:48;;;;;;;2.78;1.25;;;;;;;;;;5050897;28;20029;-78
2022/08/10 14:51:16;;;;;;;2.47;1.20;;;;;;;;;;5047022;28;20091;-77
2022/08/10 14:53:44;;;;;;;3.88;1.15;;;;;;;;;;5043292;28;20036;-78
2022/08/10 14:56:15;;;;;;;3.47;1.00;;;;;;;;;;5043897;28;20116;-77
2022/08/10 14:58:56;;;;;;;3.25;1.20;;;;;;;;;;5046870;28;20450;-77
2022/08/10 15:01:22;;;;;;;3.72;1.20;;;;;;;;;;5037058;28;20037;-77